NWS Home NWS Lubbock West Texas Mesonet                      Daily Summary For 04/11/2021

Latest   N   C   S   Daily Sum   3hrΔ   24hrΔ   Soil Data 
Site Map   24hr Precip   72hr Precip   Google Plot


Station Time of Last Max Temp Min Temp Max/Min Dew Pt. Max/Min RH 10m Avg Wind 2m Avg Wind Peak Gust @ 33ft (mph) Potential Evapotranspiration
mm/day or in/day
Rain Sum Solar Rad
MJ/m^2
% Clear Day Red Flag
Abernathy 5ENE 11:59 PM 72 58 60 /55 96 / 60 10.2  (S) 6.7 30.7 mph 346° @ 0318 PM 3.8 or 0.15 0.00 28.1 207.4 0
Adrian 6WSW 11:59 PM 72 58 60 /55 96 / 60 11.2  (S) 8.2 33.8 mph 64° @ 1059 PM 3.3 or 0.13 0.00 28.9 222.4 0
Aiken 3WSW 11:59 PM 72 58 60 /55 96 / 60 9.4  (S) 6.2 27.2 mph 289° @ 0242 PM 3.3 or 0.13 0.00 28.4 211.4 0
Amarillo 15NNW 11:59 PM 72 58 60 /55 96 / 60 10.1  (S) 7.4 29.5 mph 41° @ 1130 PM 3 or 0.12 0.00 27.5 213.8 0
Amarillo 7SSE 11:59 PM 72 58 60 /55 96 / 60 9.9  (S) 6.8 25.5 mph 341° @ 0405 PM 3.3 or 0.13 0.00 27.2 208.9 0
Amarillo 9NNE 11:59 PM 72 58 60 /55 96 / 60 8.4  (S) 6.7 29.8 mph 201° @ 0408 AM 2.5 or 0.1 0.00 26.7 207.6 0
Amherst 1NE 11:55 PM 72 58 60 /55 96 / 60 9.3  (S) 6.7 27.2 mph 261° @ 0505 PM 3 or 0.12 0.00 5.5 204.7 0
Andrews 2E 11:59 PM 72 58 60 /55 96 / 60 10.2  (S) 6.2 34 mph 310° @ 0250 PM 3.8 or 0.15 0.00 28.8 201.7 11
Anton 6SSW 11:55 PM 72 58 60 /55 96 / 60 9.4  (SE) 6.7 29 mph 292° @ 0415 PM 3.6 or 0.14 0.00 27.8 203.5 0
Aspermont 3NE 11:59 PM 72 58 60 /55 96 / 60 8.5  (SE) 4.7 27.4 mph 285° @ 0621 PM 3.6 or 0.14 0.00 28.3 206.3 0
Big Bend NP - Castolon 11:59 PM 72 58 60 /55 96 / 60 4.8  (W) 3.5 21 mph 0° @ 0254 PM 2.5 or 0.1 0.00 27.2 174 0
Big Bend NP - Persimmon Gap 11:59 PM 72 58 60 /55 96 / 60 8.2  (N) 6.3 26.5 mph 3° @ 0104 AM 4.1 or 0.16 0.00 24.4 157.3 0
Big Lake 1WNW 11:59 PM 72 58 60 /55 96 / 60 11.3  (E) 8.8 30.8 mph 185° @ 0905 AM 4.8 or 0.19 0.00 28.7 194.4 1
Bootleg 11WNW 11:59 PM 72 58 60 /55 96 / 60 10.8  (S) 7.6 27.5 mph 277° @ 0157 PM 3.3 or 0.13 0.00 25.6 193.7 0
Borger 7E 11:59 PM 72 58 60 /55 96 / 60 12  (S) 9.1 35.1 mph 354° @ 0101 PM 3.6 or 0.14 0.00 29.3 230.7 0
Boys Ranch 1WSW 11:59 PM 72 58 60 /55 96 / 60 6.2  (E) 4.9 30.5 mph 50° @ 1148 PM 1.8 or 0.07 0.00 28.7 224.4 0
Brownfield 2S 11:59 PM 72 58 60 /55 96 / 60 12.1  (S) 8.3 38.4 mph 309° @ 0157 PM 4.6 or 0.18 0.00 28.6 205.5 32
Canadian 6E 11:59 PM 72 58 60 /55 96 / 60 10.4  (SE) 7.7 33 mph 38° @ 1054 PM 3.3 or 0.13 0.00 27.8 222.5 0
Caprock Canyons State Park 11:59 PM 72 58 60 /55 96 / 60 9.8  (W) 7 31.2 mph 273° @ 0837 AM 3.3 or 0.13 0.00 28.9 218.4 0
Childress 2NNE 11:55 PM 72 58 60 /55 96 / 60 8.4  (SE) 5.5 24.4 mph 181° @ 0145 AM 3 or 0.12 0.00 27 205 0
Clarendon 2WSW 11:55 PM 72 58 60 /55 96 / 60 10.4  (S) 6.8 21.2 mph 223° @ 0645 AM 3.3 or 0.13 0.00 28.1 215.8 0
Claude 12SW 11:59 PM 72 58 60 /55 96 / 60 9.3  (S) 6.3 28.3 mph 323° @ 0215 PM 3 or 0.12 0.00 28.4 217.1 0
Clyde 2WNW 11:59 PM 72 58 60 /55 96 / 60 13.2  (SE) 10.2 33.4 mph 207° @ 1206 PM 5.3 or 0.21 0.00 26.9 190.7 0
Colorado City 5NW 11:59 PM 72 58 60 /55 96 / 60 9.4  (E) 6 29.9 mph 286° @ 0313 PM 4.3 or 0.17 0.00 27.1 191.9 3
Comanche Springs 11:59 PM 72 58 60 /55 96 / 60 5.8  (SE) 3.2 25.2 mph 209° @ 1111 AM 2.5 or 0.1 0.00 28.2 211.4 0
Coyanosa 2N 11:59 PM 72 58 60 /55 96 / 60 8.8  (SE) 5.8 27.2 mph 266° @ 0453 PM 3.8 or 0.15 0.00 28.3 192.2 1
Crane 1NNW 11:59 PM 72 58 60 /55 96 / 60 11.1  (SE) 8.9 33.8 mph 188° @ 0605 AM 4.6 or 0.18 0.00 28.9 197.3 3
Crowell 1E 11:59 PM 72 58 60 /55 96 / 60 8  (S) 5.7 28.8 mph 209° @ 1103 AM 3.3 or 0.13 0.00 27.3 204.6 0
Dell City 11:59 PM 72 58 60 /55 96 / 60 7  (SW) 4.7 27.8 mph 264° @ 0412 PM 3 or 0.12 0.00 25.2 173.4 1
Denver City 7WNW 11:55 PM 72 58 60 /55 96 / 60 11.7  (S) 8.2 32.9 mph 298° @ 0210 PM 4.1 or 0.16 0.00 29.4 209.4 25
Dimmitt 2NE 11:55 PM 72 58 60 /55 96 / 60 11.3  (S) 8.4 25.6 mph 212° @ 0325 AM 3.6 or 0.14 0.00 27.7 208 0
Doole 3WNW 11:59 PM 72 58 60 /55 96 / 60 11.1  (SE) 7.9 32.2 mph 181° @ 1057 AM 5.3 or 0.21 0.00 28 192.5 1
Dora NM 2SW 11:55 PM 72 58 60 /55 96 / 60 13.9  (S) 10.6 34 mph 254° @ 0340 PM 4.6 or 0.18 0.00 26 190.4 0
Dozier 3W 11:59 PM 72 58 60 /55 96 / 60 5  (SW) 3.3 20.8 mph 41° @ 0348 PM 1.8 or 0.07 0.00 27.6 214 0
Earth 9WSW 11:59 PM 72 58 60 /55 96 / 60 9.8  (S) 7.7 25.7 mph 191° @ 0319 AM 3.3 or 0.13 0.00 28 208.2 0
Endee NM 2SW 11:59 PM 72 58 60 /55 96 / 60 7.8  (SE) 5.3 34.1 mph 40° @ 1154 PM 2.3 or 0.09 0.00 27 206.6 0
Estelline 3SSE 11:59 PM 72 58 60 /55 96 / 60 6.9  (S) 4.9 18.4 mph 173° @ 0200 AM 2.5 or 0.1 0.00 27.8 211.9 0
Floydada 2NNE 11:55 PM 72 58 60 /55 96 / 60 10.5  (S) 7.6 31.3 mph 298° @ 0220 PM 3.6 or 0.14 0.00 27.7 205.3 0
Fluvanna 3WNW 11:55 PM 72 58 60 /55 96 / 60 12.3  (SE) 9.5 34.4 mph 298° @ 0420 PM 4.8 or 0.19 0.00 26.1 187 30
Fort Chadbourne 11:59 PM 72 58 60 /55 96 / 60 7.5  (E) 5 29.4 mph 250° @ 0450 PM 3.8 or 0.15 0.00 25.9 181.1 1
Fort Lancaster 11:59 PM 72 58 60 /55 96 / 60 7.6  (E) 5.3 19.4 mph 146° @ 0938 AM 3.8 or 0.15 0.00 25.7 172.2 0
Fort Lewis CO 11:59 PM 72 58 60 /55 96 / 60 10.3  (N) 8.1 31.8 mph 294° @ 0328 PM 2 or 0.08 0.00 28.3 228.8 45
Fort McKavett 11:59 PM 72 58 60 /55 96 / 60 8.7  (E) 5 29.9 mph 200° @ 1117 AM 4.3 or 0.17 0.00 27.3 183.4 0
Friona 2NE 11:55 PM 72 58 60 /55 96 / 60 9.3  (S) 6.6 28.6 mph 344° @ 1240 PM 3 or 0.12 0.00 28.5 215 0
Fritch 1WNW 11:59 PM 72 58 60 /55 96 / 60 12.2  (S) 9.9 33.4 mph 46° @ 1050 PM 3.6 or 0.14 0.00 28 220 0
Gail 2ESE 11:59 PM 72 58 60 /55 96 / 60 9.4  (SE) 5.9 31.8 mph 307° @ 0525 PM 4.1 or 0.16 0.00 28 200 12
Goodlett 3W 11:55 PM 72 58 60 /55 96 / 60 8.7  (S) 5.6 24.7 mph 190° @ 1050 AM 3.3 or 0.13 0.00 28 212.2 0
Goodnight 11:59 PM 72 58 60 /55 96 / 60 10.5  (S) 7.3 25.7 mph 261° @ 0951 AM 3.3 or 0.13 0.00 26.5 203.8 0
Graham 5SSW 11:59 PM 72 58 60 /55 96 / 60 10.8  (SE) 7.5 38.4 mph 300° @ 0155 PM 4.1 or 0.16 0.00 29.1 209.4 29
Guadalupe Mtns Natl Park 11:59 PM 72 58 60 /55 96 / 60 10.1  (NE) 7.5 51.5 mph 217° @ 0232 PM 3 or 0.12 0.00 28.1 190.5 5
Guthrie 10WSW 11:59 PM 72 58 60 /55 96 / 60 9.7  (SE) 5.9 27.4 mph 217° @ 1131 AM 4.1 or 0.16 0.00 28.2 207.7 0
Hackberry 2SSE 11:59 PM 72 58 60 /55 96 / 60 9.4  (S) 6.7 24.3 mph 210° @ 1147 AM 3.6 or 0.14 0.00 28.5 212.7 0
Happy 1E 11:59 PM 72 58 60 /55 96 / 60 10.3  (S) 7.6 23.8 mph 353° @ 1241 PM 3.3 or 0.13 0.00 29.3 222 0
Hart 3N 11:55 PM 72 58 60 /55 96 / 60 8.7  (S) 5.6 29.2 mph 283° @ 0455 PM 3 or 0.12 0.00 28.3 212 0
Haskell 1NW 11:55 PM 72 58 60 /55 96 / 60 8.8  (SE) 5.8 27.8 mph 210° @ 0240 PM 3.8 or 0.15 0.00 24.5 178.3 0
Hefner 1SW 11:59 PM 72 58 60 /55 96 / 60 9.9  (SE) 5.9 28.1 mph 191° @ 1111 AM 4.1 or 0.16 0.00 26.8 197.8 0
Hereford 2NW 11:55 PM 72 58 60 /55 96 / 60 8.1  (S) 5.9 23.3 mph 334° @ 0150 PM 2.5 or 0.1 0.00 27.7 210 0
Hobbs NM 5NW 11:59 PM 72 58 60 /55 96 / 60 9.5  (S) 6.8 26.8 mph 267° @ 0358 PM 3.3 or 0.13 0.00 28.6 202.6 0
Jayton 1SSE 11:55 PM 72 58 60 /55 96 / 60 9.1  (SE) 6.3 25.3 mph 207° @ 1020 AM 3.8 or 0.15 0.00 26.8 195.3 0
Junction 1SSW 11:59 PM 72 58 60 /55 96 / 60 6.5  (SE) 4.8 26.9 mph 184° @ 1154 AM 3.6 or 0.14 0.00 22.7 151.7 0
Kent 9E 11:59 PM 72 58 60 /55 96 / 60 11.2  (E) 7.9 31.6 mph 258° @ 0218 PM 4.1 or 0.16 0.00 28.3 189.4 4
Knox City 3NW 11:59 PM 72 58 60 /55 96 / 60 8.1  (SE) 4.8 24.1 mph 188° @ 1158 AM 3.6 or 0.14 0.00 28 206.5 0
Lake Alan Henry 1NW 11:59 PM 72 58 60 /55 96 / 60 9.4  (S) 6.2 28.5 mph 320° @ 0330 PM 4.1 or 0.16 0.00 27.2 196.6 0
Lake McClellan 2NW 11:59 PM 72 58 60 /55 96 / 60 12.8  (S) 9.6 27.3 mph 252° @ 0943 AM 3.8 or 0.15 0.00 27.2 210.5 0
Lamesa 2SE 11:55 PM 72 58 60 /55 96 / 60 9.5  (SE) 6.4 32.9 mph 293° @ 0325 PM 3.8 or 0.15 0.00 28.3 201 15
Lesley 2S 11:59 PM 72 58 60 /55 96 / 60 5.6  (E) 3.5 22.1 mph 332° @ 0615 PM 2 or 0.08 0.00 28.3 216 0
Levelland 4S 11:59 PM 72 58 60 /55 96 / 60 12.3  (SE) 9.5 35.1 mph 321° @ 0248 PM 4.3 or 0.17 0.00 27.6 200.8 23
Lomax 1SSE 11:59 PM 72 58 60 /55 96 / 60 10.9  (SE) 7.8 32.7 mph 237° @ 0528 PM 4.6 or 0.18 0.00 28.1 196.3 26
Lubbock 3WNW TTU 11:55 PM 72 58 60 /55 96 / 60 9  (SE) 5.6 28.1 mph 311° @ 0205 PM 3.3 or 0.13 0.00 27.8 203.3 0
McAdoo 3NNW 11:59 PM 72 58 60 /55 96 / 60 11.2  (S) 7.7 26.3 mph 232° @ 1050 AM 4.1 or 0.16 0.00 28.2 207.3 0
McCamey 1SSW 11:59 PM 72 58 60 /55 96 / 60 8  (E) 6.5 24.9 mph 293° @ 0308 PM 3.6 or 0.14 0.00 28.1 190.6 0
McLean 1E 11:55 PM 72 58 60 /55 96 / 60 10.1  (S) 7.6 24.3 mph 314° @ 0505 PM 3.3 or 0.13 0.00 28.9 224.4 0
Memphis 1NE 11:59 PM 72 58 60 /55 96 / 60 3.5  (S) 2 15.3 mph 122° @ 0534 PM 1.3 or 0.05 0.00 28.2 216.1 0
Menard 2NW 11:59 PM 72 58 60 /55 96 / 60 7.6  (N) 5.7 28.3 mph 191° @ 1041 AM 4.1 or 0.16 0.00 23.9 161.7 0
Mertzon 3NNE 11:59 PM 72 58 60 /55 96 / 60 10.5  (S) 6.8 34.7 mph 201° @ 1054 AM 4.8 or 0.19 0.00 26.9 183.9 1
Morton 1ENE 11:55 PM 72 58 60 /55 96 / 60 11.5  (SE) 7.9 33.4 mph 311° @ 0105 PM 4.1 or 0.16 0.00 27.4 200 0
Muleshoe 2SSW 11:55 PM 72 58 60 /55 96 / 60 9.8  (S) 6.7 26.2 mph 319° @ 0240 PM 3.3 or 0.13 0.00 29.8 221 0
New Home 11:59 PM 72 58 60 /55 96 / 60 9.5  (SE) 6 31.4 mph 286° @ 0233 PM 3.6 or 0.14 0.00 27.9 201.7 3
Northfield 1S 11:55 PM 72 58 60 /55 96 / 60 7.5  (S) 4.6 25.1 mph 204° @ 0500 AM 2.8 or 0.11 0.00 27 203.8 0
O'Donnell 1N 11:55 PM 72 58 60 /55 96 / 60 10.8  (SE) 6.1 31.8 mph 265° @ 0405 PM 4.3 or 0.17 0.00 5 177.9 0
Odell 4ENE 11:59 PM 72 58 60 /55 96 / 60 9.3  (S) 6.5 27.1 mph 184° @ 1236 PM 3.3 or 0.13 0.00 26.3 200.1 0
Olton 6S 11:55 PM 72 58 60 /55 96 / 60 10  (S) 6.9 23.6 mph 324° @ 1225 PM 3.6 or 0.14 0.00 27.4 202.8 0
Paducah 10SW 11:59 PM 72 58 60 /55 96 / 60 9.7  (S) 5.5 29.6 mph 198° @ 1107 AM 3.6 or 0.14 0.00 28 208.9 0
Palo Duro 4E (JA Ranch) 11:59 PM 72 58 60 /55 96 / 60 6.7  (N) 4.9 21.9 mph 290° @ 0348 PM 2.5 or 0.1 0.00 27.2 208.9 0
Palo Duro Canyon SP Floor 11:59 PM 72 58 60 /55 96 / 60 5  (SE) 2.5 27.3 mph 304° @ 1159 AM 1.5 or 0.06 0.00 26.3 202.4 0
Palo Duro Canyon State Park Rim 11:59 PM 72 58 60 /55 96 / 60 7.4  (S) 4.4 25.2 mph 86° @ 1032 PM 2.3 or 0.09 0.00 28.2 216.2 0
Palo Duro Reservoir 1NW 11:59 PM 72 58 60 /55 96 / 60 12.9  (S) 9.3 35.4 mph 51° @ 0758 PM 3.8 or 0.15 0.00 26.8 216.7 0
Pampa 2E 11:55 PM 72 58 60 /55 96 / 60 11  (S) 8.1 25.9 mph 31° @ 1145 PM 3.3 or 0.13 0.00 26.9 210.5 0
Panhandle 1SSW 11:59 PM 72 58 60 /55 96 / 60 10.2  (S) 7.3 26 mph 21° @ 1153 PM 3 or 0.12 0.00 27.9 216.5 0
Plains 3N 11:55 PM 72 58 60 /55 96 / 60 12.2  (SE) 9.2 32.8 mph 290° @ 1235 PM 4.1 or 0.16 0.00 29.1 209.1 25
Plainview 1S 11:59 PM 72 58 60 /55 96 / 60 7.5  (SE) 5.2 25.2 mph 308° @ 0153 PM 2.5 or 0.1 0.00 28.7 213.5 0
Post 1NE 11:59 PM 72 58 60 /55 96 / 60 9.1  (S) 5.9 40.6 mph 295° @ 0154 PM 3.6 or 0.14 0.00 28.3 205.2 1
Ralls 1SE 11:59 PM 72 58 60 /55 96 / 60 9.7  (SE) 6.5 25.2 mph 289° @ 0353 PM 3.8 or 0.15 0.00 27.7 202.9 0
Reese Center 11:59 PM 72 58 60 /55 96 / 60 10.1  (SE) 7.3 32.9 mph 316° @ 0228 PM 3.6 or 0.14 0.00 28.2 206.2 11
Roaring Springs 3N 11:59 PM 72 58 60 /55 96 / 60 9.4  (S) 6.3 29.6 mph 235° @ 0123 PM 3.3 or 0.13 0.00 28.5 211.7 0
Romero 11SSW 11:59 PM 72 58 60 /55 96 / 60 7.8  (S) 5.2 37.3 mph 48° @ 1100 PM 2.3 or 0.09 0.00 27.1 211.6 0
Rotan 5W 11:59 PM 72 58 60 /55 96 / 60 11  (SE) 7.4 32.1 mph 203° @ 0950 AM 4.3 or 0.17 0.00 33.3 239.5 8
San Angelo 7NW 11:55 PM 72 58 60 /55 96 / 60 7.4  (E) 5.4 30 mph 215° @ 1210 PM 3.8 or 0.15 0.00 26.3 181.2 0
Seagraves 1SW 11:59 PM 72 58 60 /55 96 / 60 9.9  (SE) 6.5 36.2 mph 298° @ 0227 PM 3.8 or 0.15 0.00 28.7 204.5 42
Segovia 7SSW 11:59 PM 72 58 60 /55 96 / 60 9.7  (SE) 6.1 26.8 mph 216° @ 1213 PM 4.3 or 0.17 0.00 27.1 179 0
Seminole 2NNE 11:55 PM 72 58 60 /55 96 / 60 9.2  (SE) 5.8 32.5 mph 299° @ 1250 PM 3.6 or 0.14 0.00 5.7 200.7 0
Seymour 3NW 11:55 PM 72 58 60 /55 96 / 60 9.2  (SE) 6 30.5 mph 194° @ 1130 AM 3.6 or 0.14 0.00 23 170.8 0
Sierra Blanca 1SSE 11:59 PM 72 58 60 /55 96 / 60 11  (NW) 8.1 30 mph 272° @ 0138 PM 4.1 or 0.16 0.00 22.4 149.2 2
Silverton 7ESE 11:55 PM 72 58 60 /55 96 / 60 11.6  (S) 8.2 27.3 mph 250° @ 1005 AM 4.1 or 0.16 0.00 25.5 191.9 0
Slaton 2NE 11:59 PM 72 58 60 /55 96 / 60 9.6  (S) 6.7 30.7 mph 317° @ 0238 PM 3.6 or 0.14 0.00 29 210.9 0
Smyer 11:59 PM 72 58 60 /55 96 / 60 9.5  (SE) 7.3 29.7 mph 305° @ 0231 PM 3.3 or 0.13 0.00 29.1 211.9 10
Snyder 3E 11:55 PM 72 58 60 /55 96 / 60 11.1  (SE) 4.6 33.6 mph 290° @ 0355 PM 4.8 or 0.19 0.00 25.4 180.9 0
Snyder 3SSW 11:59 PM 72 58 60 /55 96 / 60 11.5  (SE) 8 38.3 mph 279° @ 0438 PM 4.8 or 0.19 0.00 27.3 194.3 7
South Plains 3ENE 11:59 PM 72 58 60 /55 96 / 60 9  (S) 6.4 23.9 mph 333° @ 0240 PM 3.3 or 0.13 0.00 27.4 204.9 0
Spur 1W 11:55 PM 72 58 60 /55 96 / 60 6.7  (S) 3.8 26.1 mph 302° @ 0505 PM 2.8 or 0.11 0.00 27.9 204.4 0
St. Lawrence 5SW 11:59 PM 72 58 60 /55 96 / 60 12.9  (SE) 9.6 34 mph 266° @ 0324 PM 5.3 or 0.21 0.00 29 199.4 26
Stamford 5ESE 11:59 PM 72 58 60 /55 96 / 60 10.2  (S) 7.2 32.1 mph 202° @ 1147 AM 4.6 or 0.18 0.00 27.1 195.8 0
Sterling City 4WSW 11:59 PM 72 58 60 /55 96 / 60 9.1  (E) 6.3 27.8 mph 176° @ 0922 AM 4.3 or 0.17 0.00 22.1 153.2 2
Stinnett 1NNW 11:59 PM 72 58 60 /55 96 / 60 13.2  (SW) 9.4 29.9 mph 41° @ 1006 PM 3.8 or 0.15 0.00 27.8 220.2 0
Stratford 4WNW 11:59 PM 72 58 60 /55 96 / 60 13.6  (S) 9.9 33.2 mph 14° @ 1210 PM 3.6 or 0.14 0.00 28 224.9 34
Sundown 8WSW 11:55 PM 72 58 60 /55 96 / 60 11.8  (S) 7.5 35.4 mph 308° @ 0330 PM 4.6 or 0.18 0.00 24.8 179.1 10
Sweetwater 11SW 11:59 PM 72 58 60 /55 96 / 60 13.7  (SE) 10.3 34.7 mph 176° @ 0956 AM 5.6 or 0.22 0.00 28.5 200.4 2
Tahoka 3NNE 11:59 PM 72 58 60 /55 96 / 60 11.2  (SE) 7.1 38.9 mph 295° @ 0328 PM 4.3 or 0.17 0.00 28 202 10
Tarzan 2WNW 11:59 PM 72 58 60 /55 96 / 60 10.5  (E) 6.7 35.4 mph 289° @ 0144 PM 4.1 or 0.16 0.00 28.6 200.3 25
Tatum NM 2SW 11:55 PM 72 58 60 /55 96 / 60 12.7  (S) 8.3 32.8 mph 267° @ 0400 PM 4.3 or 0.17 0.00 28.6 205 55
Throckmorton 1SW 11:59 PM 72 58 60 /55 96 / 60 8.8  (S) 4.2 25.5 mph 184° @ 1136 AM 3.8 or 0.15 0.00 27.5 200.5 0
Truscott 2SE 11:59 PM 72 58 60 /55 96 / 60 9.6  (S) 6.4 28.7 mph 191° @ 1106 AM 3.8 or 0.15 0.00 27.1 201.5 0
Tulia 2ENE 11:55 PM 72 58 60 /55 96 / 60 10.2  (S) 7 24 mph 309° @ 0505 PM 3.6 or 0.14 0.00 24.7 186.1 0
Turkey 2WSW 11:55 PM 72 58 60 /55 96 / 60 7.5  (S) 5.1 17.1 mph 357° @ 0135 PM 2.8 or 0.11 0.00 24.5 184.7 0
Umbarger 3NNE 11:59 PM 72 58 60 /55 96 / 60 10.7  (S) 8 25.7 mph 348° @ 1248 PM 3.3 or 0.13 0.00 27.7 211.7 1
Van Horn 3ENE 11:59 PM 72 58 60 /55 96 / 60 10.2  (SW) 6.9 28.1 mph 237° @ 0234 PM 4.1 or 0.16 0.00 27.4 182.7 0
Vega 4E 11:59 PM 72 58 60 /55 96 / 60 10.3  (S) 7.4 27.4 mph 35° @ 1154 PM 3 or 0.12 0.00 29.7 228.2 0
Vigo Park 11:59 PM 72 58 60 /55 96 / 60 10.3  (S) 6.5 26.9 mph 342° @ 1234 PM 3.6 or 0.14 0.00 25.8 195.1 0
Wall 2E 11:59 PM 72 58 60 /55 96 / 60 12.8  (SE) 9.4 32.1 mph 211° @ 1200 PM 5.8 or 0.23 0.00 27.8 190.7 16
Weinert 2NNE 11:59 PM 72 58 60 /55 96 / 60 9.6  (SE) 6.5 26.9 mph 208° @ 1049 AM 4.3 or 0.17 0.00 24.5 179.9 0
Welch 11:59 PM 72 58 60 /55 96 / 60 9.6  (SE) 6.3 31.4 mph 284° @ 0257 PM 3.8 or 0.15 0.00 28.1 200.5 19
Wellington 6SE 11:59 PM 72 58 60 /55 96 / 60 8  (S) 5 20.8 mph 217° @ 1220 PM 2.8 or 0.11 0.00 29 223.2 0
White River Lake 6NW 11:59 PM 72 58 60 /55 96 / 60 8.9  (S) 5.7 28.5 mph 295° @ 0445 PM 3.3 or 0.13 0.00 29.3 214.5 2
Wolfforth 6SSW 11:59 PM 72 58 60 /55 96 / 60 10.6  (SE) 7.6 37.3 mph 300° @ 0218 PM 4.1 or 0.16 0.00 28.3 205 44

WestTexas Mesonet Home    Site Map/Menu  National Weather Service Lubbock   Soil Data   Latest Observation Page   Previous  Date   Next Last